sensor_id;sensor_type;location;lat;lon;timestamp;P1;durP1;ratioP1;P2;durP2;ratioP2
8849;SDS011;5638;50.860;4.698;2022-10-26T00:01:05;6.43;;;2.20;;
8849;SDS011;5638;50.860;4.698;2022-10-26T00:03:40;6.13;;;1.90;;
8849;SDS011;5638;50.860;4.698;2022-10-26T00:06:12;4.20;;;1.90;;
8849;SDS011;5638;50.860;4.698;2022-10-26T00:08:42;3.77;;;2.17;;
8849;SDS011;5638;50.860;4.698;2022-10-26T00:11:09;2.93;;;1.80;;
8849;SDS011;5638;50.860;4.698;2022-10-26T00:13:36;3.63;;;2.10;;
8849;SDS011;5638;50.860;4.698;2022-10-26T00:16:10;5.30;;;2.07;;
8849;SDS011;5638;50.860;4.698;2022-10-26T00:19:06;8.90;;;2.07;;
8849;SDS011;5638;50.860;4.698;2022-10-26T00:21:31;3.40;;;1.83;;
8849;SDS011;5638;50.860;4.698;2022-10-26T00:23:58;4.43;;;2.43;;
8849;SDS011;5638;50.860;4.698;2022-10-26T00:26:24;6.27;;;2.20;;
8849;SDS011;5638;50.860;4.698;2022-10-26T00:28:53;3.20;;;2.17;;
8849;SDS011;5638;50.860;4.698;2022-10-26T00:31:21;5.87;;;2.10;;
8849;SDS011;5638;50.860;4.698;2022-10-26T00:33:50;3.00;;;1.83;;
8849;SDS011;5638;50.860;4.698;2022-10-26T00:36:21;5.43;;;2.13;;
8849;SDS011;5638;50.860;4.698;2022-10-26T00:38:48;3.90;;;1.83;;
8849;SDS011;5638;50.860;4.698;2022-10-26T00:41:21;3.97;;;2.03;;
8849;SDS011;5638;50.860;4.698;2022-10-26T00:43:56;3.67;;;2.07;;
8849;SDS011;5638;50.860;4.698;2022-10-26T00:46:24;5.53;;;1.87;;
8849;SDS011;5638;50.860;4.698;2022-10-26T00:49:00;5.20;;;1.90;;
8849;SDS011;5638;50.860;4.698;2022-10-26T00:51:34;2.97;;;1.57;;
8849;SDS011;5638;50.860;4.698;2022-10-26T00:54:13;4.70;;;2.10;;
8849;SDS011;5638;50.860;4.698;2022-10-26T00:56:43;6.00;;;1.83;;
8849;SDS011;5638;50.860;4.698;2022-10-26T00:59:15;3.00;;;2.13;;
8849;SDS011;5638;50.860;4.698;2022-10-26T01:01:43;6.90;;;2.10;;
8849;SDS011;5638;50.860;4.698;2022-10-26T01:04:12;4.63;;;1.93;;
8849;SDS011;5638;50.860;4.698;2022-10-26T01:06:39;4.20;;;1.87;;
8849;SDS011;5638;50.860;4.698;2022-10-26T01:09:07;6.00;;;1.90;;
8849;SDS011;5638;50.860;4.698;2022-10-26T01:11:34;3.37;;;1.67;;
8849;SDS011;5638;50.860;4.698;2022-10-26T01:14:00;2.80;;;1.83;;
8849;SDS011;5638;50.860;4.698;2022-10-26T01:27:39;3.87;;;1.97;;
8849;SDS011;5638;50.860;4.698;2022-10-26T01:38:56;6.67;;;2.30;;
8849;SDS011;5638;50.860;4.698;2022-10-26T01:41:43;2.97;;;2.00;;
8849;SDS011;5638;50.860;4.698;2022-10-26T01:44:17;3.83;;;2.00;;
8849;SDS011;5638;50.860;4.698;2022-10-26T01:46:53;4.10;;;1.90;;
8849;SDS011;5638;50.860;4.698;2022-10-26T01:49:24;4.00;;;1.93;;
8849;SDS011;5638;50.860;4.698;2022-10-26T01:51:57;3.17;;;1.97;;
8849;SDS011;5638;50.860;4.698;2022-10-26T01:54:23;4.97;;;2.37;;
8849;SDS011;5638;50.860;4.698;2022-10-26T01:56:52;4.77;;;2.37;;
8849;SDS011;5638;50.860;4.698;2022-10-26T02:02:37;6.97;;;2.13;;
8849;SDS011;5638;50.860;4.698;2022-10-26T02:05:22;4.20;;;1.87;;
8849;SDS011;5638;50.860;4.698;2022-10-26T02:11:42;4.57;;;2.03;;
8849;SDS011;5638;50.860;4.698;2022-10-26T02:17:14;4.63;;;2.17;;
8849;SDS011;5638;50.860;4.698;2022-10-26T02:20:01;8.27;;;2.17;;
8849;SDS011;5638;50.860;4.698;2022-10-26T02:22:32;4.63;;;1.97;;
8849;SDS011;5638;50.860;4.698;2022-10-26T02:25:08;3.10;;;1.93;;
8849;SDS011;5638;50.860;4.698;2022-10-26T02:27:42;2.37;;;1.80;;
8849;SDS011;5638;50.860;4.698;2022-10-26T02:30:14;5.03;;;2.00;;
8849;SDS011;5638;50.860;4.698;2022-10-26T02:32:45;5.77;;;1.80;;
8849;SDS011;5638;50.860;4.698;2022-10-26T02:35:16;9.83;;;2.37;;
8849;SDS011;5638;50.860;4.698;2022-10-26T02:37:49;2.97;;;1.70;;
8849;SDS011;5638;50.860;4.698;2022-10-26T02:40:19;7.93;;;2.00;;
8849;SDS011;5638;50.860;4.698;2022-10-26T02:42:51;5.03;;;1.80;;
8849;SDS011;5638;50.860;4.698;2022-10-26T02:45:23;3.53;;;1.73;;
8849;SDS011;5638;50.860;4.698;2022-10-26T02:47:54;2.53;;;1.83;;
8849;SDS011;5638;50.860;4.698;2022-10-26T02:50:23;3.53;;;1.93;;
8849;SDS011;5638;50.860;4.698;2022-10-26T02:53:23;3.47;;;1.67;;
8849;SDS011;5638;50.860;4.698;2022-10-26T02:56:05;4.87;;;1.70;;
8849;SDS011;5638;50.860;4.698;2022-10-26T02:58:40;3.07;;;1.50;;
8849;SDS011;5638;50.860;4.698;2022-10-26T03:01:13;3.57;;;1.57;;
8849;SDS011;5638;50.860;4.698;2022-10-26T03:03:40;4.63;;;1.57;;
8849;SDS011;5638;50.860;4.698;2022-10-26T03:06:05;3.40;;;1.97;;
8849;SDS011;5638;50.860;4.698;2022-10-26T03:08:31;3.10;;;1.53;;
8849;SDS011;5638;50.860;4.698;2022-10-26T03:10:57;2.30;;;1.67;;
8849;SDS011;5638;50.860;4.698;2022-10-26T03:13:23;2.13;;;1.30;;
8849;SDS011;5638;50.860;4.698;2022-10-26T03:15:49;3.97;;;1.57;;
8849;SDS011;5638;50.860;4.698;2022-10-26T03:18:15;1.87;;;1.70;;
8849;SDS011;5638;50.860;4.698;2022-10-26T03:20:42;5.87;;;1.87;;
8849;SDS011;5638;50.860;4.698;2022-10-26T03:23:09;6.33;;;1.80;;
8849;SDS011;5638;50.860;4.698;2022-10-26T03:25:36;2.27;;;1.40;;
8849;SDS011;5638;50.860;4.698;2022-10-26T03:28:02;3.60;;;1.87;;
8849;SDS011;5638;50.860;4.698;2022-10-26T03:30:29;1.57;;;1.37;;
8849;SDS011;5638;50.860;4.698;2022-10-26T03:32:56;2.93;;;1.50;;
8849;SDS011;5638;50.860;4.698;2022-10-26T03:35:22;2.13;;;1.70;;
8849;SDS011;5638;50.860;4.698;2022-10-26T03:37:48;2.67;;;1.60;;
8849;SDS011;5638;50.860;4.698;2022-10-26T03:40:14;3.90;;;1.90;;
8849;SDS011;5638;50.860;4.698;2022-10-26T03:42:40;2.27;;;1.50;;
8849;SDS011;5638;50.860;4.698;2022-10-26T03:45:06;3.20;;;1.53;;
8849;SDS011;5638;50.860;4.698;2022-10-26T03:47:33;3.73;;;1.60;;
8849;SDS011;5638;50.860;4.698;2022-10-26T03:50:07;3.03;;;1.70;;
8849;SDS011;5638;50.860;4.698;2022-10-26T03:52:33;4.37;;;1.53;;
8849;SDS011;5638;50.860;4.698;2022-10-26T03:54:59;1.60;;;1.50;;
8849;SDS011;5638;50.860;4.698;2022-10-26T03:57:24;2.67;;;1.50;;
8849;SDS011;5638;50.860;4.698;2022-10-26T03:59:50;3.87;;;1.50;;
8849;SDS011;5638;50.860;4.698;2022-10-26T04:02:16;2.60;;;1.30;;
8849;SDS011;5638;50.860;4.698;2022-10-26T04:04:42;3.07;;;1.53;;
8849;SDS011;5638;50.860;4.698;2022-10-26T04:07:07;1.70;;;1.20;;
8849;SDS011;5638;50.860;4.698;2022-10-26T04:09:33;3.03;;;1.17;;
8849;SDS011;5638;50.860;4.698;2022-10-26T04:11:59;2.57;;;1.10;;
8849;SDS011;5638;50.860;4.698;2022-10-26T04:14:25;2.07;;;1.30;;
8849;SDS011;5638;50.860;4.698;2022-10-26T04:16:51;4.20;;;1.33;;
8849;SDS011;5638;50.860;4.698;2022-10-26T04:19:16;1.57;;;1.07;;
8849;SDS011;5638;50.860;4.698;2022-10-26T04:21:42;1.20;;;1.10;;
8849;SDS011;5638;50.860;4.698;2022-10-26T04:24:09;1.57;;;1.13;;
8849;SDS011;5638;50.860;4.698;2022-10-26T04:26:35;1.43;;;1.00;;
8849;SDS011;5638;50.860;4.698;2022-10-26T04:29:01;2.77;;;1.30;;
8849;SDS011;5638;50.860;4.698;2022-10-26T04:31:31;3.40;;;1.37;;
8849;SDS011;5638;50.860;4.698;2022-10-26T04:33:57;2.40;;;1.30;;
8849;SDS011;5638;50.860;4.698;2022-10-26T04:36:23;3.20;;;1.40;;
8849;SDS011;5638;50.860;4.698;2022-10-26T04:38:49;4.23;;;1.53;;
8849;SDS011;5638;50.860;4.698;2022-10-26T04:41:14;2.27;;;1.40;;
8849;SDS011;5638;50.860;4.698;2022-10-26T04:43:40;2.10;;;1.23;;
8849;SDS011;5638;50.860;4.698;2022-10-26T04:46:06;2.67;;;1.40;;
8849;SDS011;5638;50.860;4.698;2022-10-26T04:48:32;2.57;;;1.53;;
8849;SDS011;5638;50.860;4.698;2022-10-26T04:50:58;1.80;;;1.20;;
8849;SDS011;5638;50.860;4.698;2022-10-26T04:53:25;3.40;;;1.80;;
8849;SDS011;5638;50.860;4.698;2022-10-26T04:55:58;3.43;;;1.80;;
8849;SDS011;5638;50.860;4.698;2022-10-26T04:58:26;2.17;;;1.20;;
8849;SDS011;5638;50.860;4.698;2022-10-26T05:00:53;4.83;;;1.70;;
8849;SDS011;5638;50.860;4.698;2022-10-26T05:03:19;1.73;;;1.37;;
8849;SDS011;5638;50.860;4.698;2022-10-26T05:05:45;2.40;;;1.40;;
8849;SDS011;5638;50.860;4.698;2022-10-26T05:08:14;3.67;;;1.87;;
8849;SDS011;5638;50.860;4.698;2022-10-26T05:10:41;2.53;;;1.60;;
8849;SDS011;5638;50.860;4.698;2022-10-26T05:13:07;2.90;;;1.60;;
8849;SDS011;5638;50.860;4.698;2022-10-26T05:15:34;1.73;;;1.47;;
8849;SDS011;5638;50.860;4.698;2022-10-26T05:18:01;3.70;;;1.30;;
8849;SDS011;5638;50.860;4.698;2022-10-26T05:20:31;4.40;;;1.93;;
8849;SDS011;5638;50.860;4.698;2022-10-26T05:23:00;5.07;;;1.67;;
8849;SDS011;5638;50.860;4.698;2022-10-26T05:25:29;2.37;;;1.70;;
8849;SDS011;5638;50.860;4.698;2022-10-26T05:27:59;2.50;;;1.50;;
8849;SDS011;5638;50.860;4.698;2022-10-26T05:30:27;3.83;;;1.73;;
8849;SDS011;5638;50.860;4.698;2022-10-26T05:32:54;1.93;;;1.50;;
8849;SDS011;5638;50.860;4.698;2022-10-26T05:35:25;2.57;;;1.47;;
8849;SDS011;5638;50.860;4.698;2022-10-26T05:37:52;4.47;;;1.60;;
8849;SDS011;5638;50.860;4.698;2022-10-26T05:40:18;2.47;;;1.50;;
8849;SDS011;5638;50.860;4.698;2022-10-26T05:42:45;2.80;;;1.70;;
8849;SDS011;5638;50.860;4.698;2022-10-26T05:45:11;3.30;;;1.67;;
8849;SDS011;5638;50.860;4.698;2022-10-26T05:47:41;2.13;;;1.53;;
8849;SDS011;5638;50.860;4.698;2022-10-26T05:50:09;4.63;;;1.80;;
8849;SDS011;5638;50.860;4.698;2022-10-26T05:52:41;2.23;;;1.40;;
8849;SDS011;5638;50.860;4.698;2022-10-26T05:55:10;3.07;;;1.43;;
8849;SDS011;5638;50.860;4.698;2022-10-26T05:57:41;3.47;;;1.60;;
8849;SDS011;5638;50.860;4.698;2022-10-26T06:00:09;3.23;;;1.60;;
8849;SDS011;5638;50.860;4.698;2022-10-26T06:05:51;1.87;;;1.50;;
8849;SDS011;5638;50.860;4.698;2022-10-26T06:08:27;6.20;;;1.60;;
8849;SDS011;5638;50.860;4.698;2022-10-26T06:10:54;3.10;;;1.53;;
8849;SDS011;5638;50.860;4.698;2022-10-26T06:13:23;2.67;;;1.40;;
8849;SDS011;5638;50.860;4.698;2022-10-26T06:24:43;2.83;;;1.53;;
8849;SDS011;5638;50.860;4.698;2022-10-26T06:30:39;5.03;;;2.20;;
8849;SDS011;5638;50.860;4.698;2022-10-26T06:33:07;3.17;;;2.03;;
8849;SDS011;5638;50.860;4.698;2022-10-26T06:38:15;3.10;;;1.70;;
8849;SDS011;5638;50.860;4.698;2022-10-26T06:40:47;2.57;;;1.47;;
8849;SDS011;5638;50.860;4.698;2022-10-26T06:43:22;2.40;;;1.63;;
8849;SDS011;5638;50.860;4.698;2022-10-26T06:46:15;4.33;;;1.80;;
8849;SDS011;5638;50.860;4.698;2022-10-26T06:51:40;5.23;;;1.90;;
8849;SDS011;5638;50.860;4.698;2022-10-26T06:54:17;1.97;;;1.50;;
8849;SDS011;5638;50.860;4.698;2022-10-26T06:57:02;2.47;;;1.50;;
8849;SDS011;5638;50.860;4.698;2022-10-26T06:59:36;3.03;;;1.57;;
8849;SDS011;5638;50.860;4.698;2022-10-26T07:02:10;5.10;;;2.07;;
8849;SDS011;5638;50.860;4.698;2022-10-26T07:04:38;3.23;;;2.00;;
8849;SDS011;5638;50.860;4.698;2022-10-26T07:07:05;2.20;;;1.73;;
8849;SDS011;5638;50.860;4.698;2022-10-26T07:09:35;3.87;;;1.90;;
8849;SDS011;5638;50.860;4.698;2022-10-26T07:12:01;5.20;;;1.70;;
8849;SDS011;5638;50.860;4.698;2022-10-26T07:14:27;2.10;;;1.90;;
8849;SDS011;5638;50.860;4.698;2022-10-26T07:16:53;3.83;;;1.93;;
8849;SDS011;5638;50.860;4.698;2022-10-26T07:19:21;4.30;;;1.60;;
8849;SDS011;5638;50.860;4.698;2022-10-26T07:21:47;3.93;;;1.77;;
8849;SDS011;5638;50.860;4.698;2022-10-26T07:24:13;4.63;;;1.63;;
8849;SDS011;5638;50.860;4.698;2022-10-26T07:26:39;6.63;;;1.83;;
8849;SDS011;5638;50.860;4.698;2022-10-26T07:29:05;4.57;;;2.00;;
8849;SDS011;5638;50.860;4.698;2022-10-26T07:31:31;5.27;;;1.90;;
8849;SDS011;5638;50.860;4.698;2022-10-26T07:33:57;3.30;;;2.10;;
8849;SDS011;5638;50.860;4.698;2022-10-26T07:36:22;4.20;;;2.00;;
8849;SDS011;5638;50.860;4.698;2022-10-26T07:38:52;3.67;;;1.67;;
8849;SDS011;5638;50.860;4.698;2022-10-26T07:41:18;3.87;;;1.80;;
8849;SDS011;5638;50.860;4.698;2022-10-26T07:43:44;5.40;;;2.10;;
8849;SDS011;5638;50.860;4.698;2022-10-26T07:46:13;6.17;;;2.43;;
8849;SDS011;5638;50.860;4.698;2022-10-26T07:48:40;4.90;;;2.10;;
8849;SDS011;5638;50.860;4.698;2022-10-26T07:51:06;3.77;;;1.50;;
8849;SDS011;5638;50.860;4.698;2022-10-26T07:53:32;4.93;;;2.00;;
8849;SDS011;5638;50.860;4.698;2022-10-26T07:55:58;4.07;;;1.87;;
8849;SDS011;5638;50.860;4.698;2022-10-26T07:58:24;6.40;;;2.17;;
8849;SDS011;5638;50.860;4.698;2022-10-26T08:00:51;5.83;;;2.23;;
8849;SDS011;5638;50.860;4.698;2022-10-26T08:03:18;2.13;;;1.87;;
8849;SDS011;5638;50.860;4.698;2022-10-26T08:05:45;2.60;;;1.60;;
8849;SDS011;5638;50.860;4.698;2022-10-26T08:08:15;4.00;;;1.90;;
8849;SDS011;5638;50.860;4.698;2022-10-26T08:10:45;4.17;;;2.07;;
8849;SDS011;5638;50.860;4.698;2022-10-26T08:13:11;6.27;;;2.13;;
8849;SDS011;5638;50.860;4.698;2022-10-26T08:15:38;3.10;;;2.10;;
8849;SDS011;5638;50.860;4.698;2022-10-26T08:18:04;5.00;;;2.00;;
8849;SDS011;5638;50.860;4.698;2022-10-26T08:20:31;5.27;;;1.90;;
8849;SDS011;5638;50.860;4.698;2022-10-26T08:22:58;3.87;;;1.87;;
8849;SDS011;5638;50.860;4.698;2022-10-26T08:25:25;3.97;;;1.97;;
8849;SDS011;5638;50.860;4.698;2022-10-26T08:27:52;3.03;;;1.73;;
8849;SDS011;5638;50.860;4.698;2022-10-26T08:30:18;3.93;;;1.60;;
8849;SDS011;5638;50.860;4.698;2022-10-26T08:32:44;5.70;;;2.00;;
8849;SDS011;5638;50.860;4.698;2022-10-26T08:35:10;3.90;;;1.60;;
8849;SDS011;5638;50.860;4.698;2022-10-26T08:37:36;2.23;;;1.80;;
8849;SDS011;5638;50.860;4.698;2022-10-26T08:40:02;4.33;;;1.97;;
8849;SDS011;5638;50.860;4.698;2022-10-26T08:42:30;2.43;;;1.77;;
8849;SDS011;5638;50.860;4.698;2022-10-26T08:45:17;2.87;;;1.43;;
8849;SDS011;5638;50.860;4.698;2022-10-26T08:47:52;4.17;;;1.93;;
8849;SDS011;5638;50.860;4.698;2022-10-26T08:50:31;4.33;;;1.70;;
8849;SDS011;5638;50.860;4.698;2022-10-26T08:53:11;5.97;;;1.70;;
8849;SDS011;5638;50.860;4.698;2022-10-26T08:55:52;3.30;;;1.97;;
8849;SDS011;5638;50.860;4.698;2022-10-26T08:58:39;3.87;;;1.93;;
8849;SDS011;5638;50.860;4.698;2022-10-26T09:01:15;3.70;;;1.77;;
8849;SDS011;5638;50.860;4.698;2022-10-26T09:03:42;2.97;;;2.00;;
8849;SDS011;5638;50.860;4.698;2022-10-26T09:08:56;2.20;;;1.43;;
8849;SDS011;5638;50.860;4.698;2022-10-26T09:23:50;14.30;;;1.93;;
8849;SDS011;5638;50.860;4.698;2022-10-26T09:26:31;1.90;;;1.33;;
8849;SDS011;5638;50.860;4.698;2022-10-26T09:29:17;2.53;;;1.50;;
8849;SDS011;5638;50.860;4.698;2022-10-26T09:31:49;4.23;;;1.57;;
8849;SDS011;5638;50.860;4.698;2022-10-26T09:34:17;4.63;;;1.63;;
8849;SDS011;5638;50.860;4.698;2022-10-26T09:36:53;4.20;;;1.60;;
8849;SDS011;5638;50.860;4.698;2022-10-26T09:39:29;3.33;;;1.43;;
8849;SDS011;5638;50.860;4.698;2022-10-26T09:42:15;2.47;;;1.47;;
8849;SDS011;5638;50.860;4.698;2022-10-26T09:44:52;2.80;;;1.20;;
8849;SDS011;5638;50.860;4.698;2022-10-26T09:53:00;3.47;;;1.37;;
8849;SDS011;5638;50.860;4.698;2022-10-26T09:55:28;3.90;;;1.27;;
8849;SDS011;5638;50.860;4.698;2022-10-26T09:57:58;6.03;;;1.77;;
8849;SDS011;5638;50.860;4.698;2022-10-26T10:00:30;7.53;;;1.50;;
8849;SDS011;5638;50.860;4.698;2022-10-26T10:02:59;2.03;;;1.40;;
8849;SDS011;5638;50.860;4.698;2022-10-26T10:08:15;1.87;;;1.30;;
8849;SDS011;5638;50.860;4.698;2022-10-26T10:11:09;2.60;;;1.27;;
8849;SDS011;5638;50.860;4.698;2022-10-26T10:13:38;2.23;;;1.30;;
8849;SDS011;5638;50.860;4.698;2022-10-26T10:18:54;2.60;;;1.23;;
8849;SDS011;5638;50.860;4.698;2022-10-26T10:24:20;4.73;;;1.50;;
8849;SDS011;5638;50.860;4.698;2022-10-26T10:26:56;3.53;;;1.57;;
8849;SDS011;5638;50.860;4.698;2022-10-26T10:29:39;3.47;;;1.37;;
8849;SDS011;5638;50.860;4.698;2022-10-26T10:32:14;3.00;;;1.37;;
8849;SDS011;5638;50.860;4.698;2022-10-26T10:34:48;1.93;;;1.13;;
8849;SDS011;5638;50.860;4.698;2022-10-26T10:37:28;2.97;;;1.27;;
8849;SDS011;5638;50.860;4.698;2022-10-26T10:40:21;2.67;;;1.60;;
8849;SDS011;5638;50.860;4.698;2022-10-26T10:42:50;2.60;;;1.50;;
8849;SDS011;5638;50.860;4.698;2022-10-26T10:45:27;3.40;;;1.30;;
8849;SDS011;5638;50.860;4.698;2022-10-26T10:48:00;4.73;;;1.30;;
8849;SDS011;5638;50.860;4.698;2022-10-26T10:53:25;2.33;;;1.60;;
8849;SDS011;5638;50.860;4.698;2022-10-26T10:56:21;2.33;;;1.60;;
8849;SDS011;5638;50.860;4.698;2022-10-26T10:58:59;1.83;;;1.40;;
8849;SDS011;5638;50.860;4.698;2022-10-26T11:07:53;3.03;;;1.30;;
8849;SDS011;5638;50.860;4.698;2022-10-26T11:10:38;3.37;;;1.30;;
8849;SDS011;5638;50.860;4.698;2022-10-26T11:13:24;2.97;;;1.50;;
8849;SDS011;5638;50.860;4.698;2022-10-26T11:16:02;1.70;;;1.20;;
8849;SDS011;5638;50.860;4.698;2022-10-26T11:18:51;2.93;;;1.37;;
8849;SDS011;5638;50.860;4.698;2022-10-26T11:21:55;1.53;;;1.10;;
8849;SDS011;5638;50.860;4.698;2022-10-26T11:24:28;3.47;;;1.30;;
8849;SDS011;5638;50.860;4.698;2022-10-26T11:27:10;4.03;;;1.30;;
8849;SDS011;5638;50.860;4.698;2022-10-26T11:32:22;3.03;;;1.30;;
8849;SDS011;5638;50.860;4.698;2022-10-26T11:34:59;1.87;;;1.40;;
8849;SDS011;5638;50.860;4.698;2022-10-26T11:37:54;2.10;;;1.30;;
8849;SDS011;5638;50.860;4.698;2022-10-26T11:40:54;2.27;;;1.30;;
8849;SDS011;5638;50.860;4.698;2022-10-26T11:43:36;2.13;;;1.37;;
8849;SDS011;5638;50.860;4.698;2022-10-26T11:54:26;2.47;;;1.60;;
8849;SDS011;5638;50.860;4.698;2022-10-26T11:57:13;2.73;;;1.50;;
8849;SDS011;5638;50.860;4.698;2022-10-26T11:59:42;3.07;;;1.47;;
8849;SDS011;5638;50.860;4.698;2022-10-26T12:02:16;2.57;;;1.47;;
8849;SDS011;5638;50.860;4.698;2022-10-26T12:04:59;3.07;;;1.33;;
8849;SDS011;5638;50.860;4.698;2022-10-26T12:07:34;3.37;;;1.33;;
8849;SDS011;5638;50.860;4.698;2022-10-26T12:10:23;3.43;;;1.40;;
8849;SDS011;5638;50.860;4.698;2022-10-26T12:12:56;1.27;;;1.10;;
8849;SDS011;5638;50.860;4.698;2022-10-26T12:15:49;7.10;;;1.77;;
8849;SDS011;5638;50.860;4.698;2022-10-26T12:18:59;4.20;;;1.30;;
8849;SDS011;5638;50.860;4.698;2022-10-26T12:22:06;3.37;;;1.20;;
8849;SDS011;5638;50.860;4.698;2022-10-26T12:24:42;3.97;;;1.80;;
8849;SDS011;5638;50.860;4.698;2022-10-26T12:37:52;3.17;;;1.17;;
8849;SDS011;5638;50.860;4.698;2022-10-26T12:40:38;2.13;;;1.30;;
8849;SDS011;5638;50.860;4.698;2022-10-26T12:45:42;2.80;;;1.20;;
8849;SDS011;5638;50.860;4.698;2022-10-26T12:48:44;3.90;;;1.30;;
8849;SDS011;5638;50.860;4.698;2022-10-26T12:53:54;1.77;;;1.23;;
8849;SDS011;5638;50.860;4.698;2022-10-26T12:57:09;7.00;;;1.63;;
8849;SDS011;5638;50.860;4.698;2022-10-26T13:00:04;4.17;;;1.30;;
8849;SDS011;5638;50.860;4.698;2022-10-26T13:08:40;2.13;;;1.10;;
8849;SDS011;5638;50.860;4.698;2022-10-26T13:13:54;2.10;;;1.10;;
8849;SDS011;5638;50.860;4.698;2022-10-26T13:16:27;2.83;;;1.10;;
8849;SDS011;5638;50.860;4.698;2022-10-26T13:18:54;2.20;;;1.20;;
8849;SDS011;5638;50.860;4.698;2022-10-26T13:21:22;3.33;;;1.30;;
8849;SDS011;5638;50.860;4.698;2022-10-26T13:26:21;3.67;;;1.33;;
8849;SDS011;5638;50.860;4.698;2022-10-26T13:28:51;4.90;;;1.27;;
8849;SDS011;5638;50.860;4.698;2022-10-26T13:34:00;3.37;;;1.67;;
8849;SDS011;5638;50.860;4.698;2022-10-26T13:36:41;2.43;;;1.20;;
8849;SDS011;5638;50.860;4.698;2022-10-26T13:39:34;2.97;;;1.30;;
8849;SDS011;5638;50.860;4.698;2022-10-26T13:42:06;1.30;;;1.00;;
8849;SDS011;5638;50.860;4.698;2022-10-26T13:44:54;4.33;;;1.33;;
8849;SDS011;5638;50.860;4.698;2022-10-26T13:50:16;4.87;;;1.53;;
8849;SDS011;5638;50.860;4.698;2022-10-26T13:52:49;2.47;;;1.17;;
8849;SDS011;5638;50.860;4.698;2022-10-26T13:55:27;1.47;;;1.10;;
8849;SDS011;5638;50.860;4.698;2022-10-26T14:03:40;3.83;;;1.40;;
8849;SDS011;5638;50.860;4.698;2022-10-26T14:06:11;3.80;;;1.20;;
8849;SDS011;5638;50.860;4.698;2022-10-26T14:09:03;2.93;;;1.27;;
8849;SDS011;5638;50.860;4.698;2022-10-26T14:11:54;3.67;;;1.20;;
8849;SDS011;5638;50.860;4.698;2022-10-26T14:14:31;3.33;;;1.20;;
8849;SDS011;5638;50.860;4.698;2022-10-26T14:17:01;3.60;;;1.17;;
8849;SDS011;5638;50.860;4.698;2022-10-26T14:19:32;2.43;;;1.07;;
8849;SDS011;5638;50.860;4.698;2022-10-26T14:22:01;2.60;;;1.23;;
8849;SDS011;5638;50.860;4.698;2022-10-26T14:24:30;2.40;;;1.40;;
8849;SDS011;5638;50.860;4.698;2022-10-26T14:26:59;4.07;;;1.40;;
8849;SDS011;5638;50.860;4.698;2022-10-26T14:29:26;3.67;;;1.30;;
8849;SDS011;5638;50.860;4.698;2022-10-26T14:31:56;1.77;;;1.10;;
8849;SDS011;5638;50.860;4.698;2022-10-26T14:34:22;2.73;;;1.37;;
8849;SDS011;5638;50.860;4.698;2022-10-26T14:36:50;4.73;;;1.40;;
8849;SDS011;5638;50.860;4.698;2022-10-26T14:39:36;1.47;;;1.10;;
8849;SDS011;5638;50.860;4.698;2022-10-26T14:47:56;3.53;;;1.30;;
8849;SDS011;5638;50.860;4.698;2022-10-26T14:50:23;3.40;;;1.63;;
8849;SDS011;5638;50.860;4.698;2022-10-26T14:53:17;4.27;;;1.50;;
8849;SDS011;5638;50.860;4.698;2022-10-26T14:55:46;3.40;;;1.13;;
8849;SDS011;5638;50.860;4.698;2022-10-26T15:03:45;4.57;;;1.83;;
8849;SDS011;5638;50.860;4.698;2022-10-26T15:06:28;3.10;;;1.47;;
8849;SDS011;5638;50.860;4.698;2022-10-26T15:09:00;3.77;;;1.37;;
8849;SDS011;5638;50.860;4.698;2022-10-26T15:11:30;7.30;;;1.60;;
8849;SDS011;5638;50.860;4.698;2022-10-26T15:13:58;3.43;;;1.37;;
8849;SDS011;5638;50.860;4.698;2022-10-26T15:16:27;1.73;;;1.10;;
8849;SDS011;5638;50.860;4.698;2022-10-26T15:19:08;6.23;;;1.90;;
8849;SDS011;5638;50.860;4.698;2022-10-26T15:21:44;5.70;;;1.40;;
8849;SDS011;5638;50.860;4.698;2022-10-26T15:26:57;3.40;;;1.17;;
8849;SDS011;5638;50.860;4.698;2022-10-26T15:29:34;1.20;;;1.00;;
8849;SDS011;5638;50.860;4.698;2022-10-26T15:32:04;4.50;;;1.33;;
8849;SDS011;5638;50.860;4.698;2022-10-26T15:35:05;2.47;;;1.20;;
8849;SDS011;5638;50.860;4.698;2022-10-26T15:37:49;3.20;;;1.30;;
8849;SDS011;5638;50.860;4.698;2022-10-26T15:40:18;3.47;;;1.30;;
8849;SDS011;5638;50.860;4.698;2022-10-26T15:42:46;1.63;;;1.23;;
8849;SDS011;5638;50.860;4.698;2022-10-26T15:45:20;3.50;;;1.30;;
8849;SDS011;5638;50.860;4.698;2022-10-26T15:47:56;3.30;;;1.17;;
8849;SDS011;5638;50.860;4.698;2022-10-26T15:50:39;6.70;;;1.60;;
8849;SDS011;5638;50.860;4.698;2022-10-26T15:53:07;2.17;;;1.27;;
8849;SDS011;5638;50.860;4.698;2022-10-26T15:55:42;7.80;;;1.43;;
8849;SDS011;5638;50.860;4.698;2022-10-26T15:58:09;5.57;;;1.40;;
8849;SDS011;5638;50.860;4.698;2022-10-26T16:00:35;2.43;;;1.10;;
8849;SDS011;5638;50.860;4.698;2022-10-26T16:03:01;3.40;;;1.50;;
8849;SDS011;5638;50.860;4.698;2022-10-26T16:05:27;6.17;;;1.70;;
8849;SDS011;5638;50.860;4.698;2022-10-26T16:07:53;3.17;;;1.27;;
8849;SDS011;5638;50.860;4.698;2022-10-26T16:10:20;3.93;;;1.50;;
8849;SDS011;5638;50.860;4.698;2022-10-26T16:12:49;3.33;;;1.20;;
8849;SDS011;5638;50.860;4.698;2022-10-26T16:15:20;2.43;;;1.03;;
8849;SDS011;5638;50.860;4.698;2022-10-26T16:17:49;2.77;;;1.20;;
8849;SDS011;5638;50.860;4.698;2022-10-26T16:20:18;4.47;;;1.27;;
8849;SDS011;5638;50.860;4.698;2022-10-26T16:22:47;3.17;;;1.20;;
8849;SDS011;5638;50.860;4.698;2022-10-26T16:25:16;4.03;;;1.77;;
8849;SDS011;5638;50.860;4.698;2022-10-26T16:27:49;2.47;;;1.37;;
8849;SDS011;5638;50.860;4.698;2022-10-26T16:30:17;10.63;;;1.57;;
8849;SDS011;5638;50.860;4.698;2022-10-26T16:32:44;2.27;;;1.30;;
8849;SDS011;5638;50.860;4.698;2022-10-26T16:35:10;3.17;;;1.43;;
8849;SDS011;5638;50.860;4.698;2022-10-26T16:37:37;1.23;;;1.00;;
8849;SDS011;5638;50.860;4.698;2022-10-26T16:40:04;2.60;;;1.30;;
8849;SDS011;5638;50.860;4.698;2022-10-26T16:42:31;3.97;;;1.30;;
8849;SDS011;5638;50.860;4.698;2022-10-26T16:44:57;3.13;;;1.40;;
8849;SDS011;5638;50.860;4.698;2022-10-26T16:47:23;4.40;;;1.40;;
8849;SDS011;5638;50.860;4.698;2022-10-26T16:49:50;7.30;;;1.80;;
8849;SDS011;5638;50.860;4.698;2022-10-26T16:52:16;2.87;;;1.30;;
8849;SDS011;5638;50.860;4.698;2022-10-26T16:54:42;3.83;;;1.63;;
8849;SDS011;5638;50.860;4.698;2022-10-26T16:57:08;3.60;;;1.40;;
8849;SDS011;5638;50.860;4.698;2022-10-26T16:59:35;3.33;;;1.43;;
8849;SDS011;5638;50.860;4.698;2022-10-26T17:02:01;3.30;;;1.47;;
8849;SDS011;5638;50.860;4.698;2022-10-26T17:04:27;3.33;;;1.50;;
8849;SDS011;5638;50.860;4.698;2022-10-26T17:06:52;3.17;;;1.40;;
8849;SDS011;5638;50.860;4.698;2022-10-26T17:09:18;4.80;;;1.57;;
8849;SDS011;5638;50.860;4.698;2022-10-26T17:11:44;5.70;;;1.80;;
8849;SDS011;5638;50.860;4.698;2022-10-26T17:14:10;6.77;;;1.40;;
8849;SDS011;5638;50.860;4.698;2022-10-26T17:16:36;2.57;;;1.33;;
8849;SDS011;5638;50.860;4.698;2022-10-26T17:19:01;4.13;;;1.50;;
8849;SDS011;5638;50.860;4.698;2022-10-26T17:21:28;2.57;;;1.30;;
8849;SDS011;5638;50.860;4.698;2022-10-26T17:23:58;4.30;;;1.37;;
8849;SDS011;5638;50.860;4.698;2022-10-26T17:26:25;1.90;;;1.10;;
8849;SDS011;5638;50.860;4.698;2022-10-26T17:28:51;2.60;;;1.50;;
8849;SDS011;5638;50.860;4.698;2022-10-26T17:31:20;4.77;;;1.50;;
8849;SDS011;5638;50.860;4.698;2022-10-26T17:33:48;4.10;;;1.30;;
8849;SDS011;5638;50.860;4.698;2022-10-26T17:36:15;3.40;;;1.30;;
8849;SDS011;5638;50.860;4.698;2022-10-26T17:38:44;2.90;;;1.27;;
8849;SDS011;5638;50.860;4.698;2022-10-26T17:41:15;3.23;;;1.60;;
8849;SDS011;5638;50.860;4.698;2022-10-26T17:43:43;3.90;;;2.00;;
8849;SDS011;5638;50.860;4.698;2022-10-26T17:46:14;3.40;;;1.30;;
8849;SDS011;5638;50.860;4.698;2022-10-26T17:48:46;2.37;;;1.70;;
8849;SDS011;5638;50.860;4.698;2022-10-26T17:51:14;1.50;;;1.20;;
8849;SDS011;5638;50.860;4.698;2022-10-26T17:53:44;4.50;;;1.20;;
8849;SDS011;5638;50.860;4.698;2022-10-26T17:56:14;4.17;;;1.67;;
8849;SDS011;5638;50.860;4.698;2022-10-26T17:59:04;5.03;;;1.80;;
8849;SDS011;5638;50.860;4.698;2022-10-26T18:01:36;3.53;;;1.77;;
8849;SDS011;5638;50.860;4.698;2022-10-26T18:04:02;3.97;;;1.40;;
8849;SDS011;5638;50.860;4.698;2022-10-26T18:06:28;6.57;;;1.70;;
8849;SDS011;5638;50.860;4.698;2022-10-26T18:08:57;2.93;;;1.83;;
8849;SDS011;5638;50.860;4.698;2022-10-26T18:11:23;2.43;;;1.67;;
8849;SDS011;5638;50.860;4.698;2022-10-26T18:13:51;2.83;;;1.67;;
8849;SDS011;5638;50.860;4.698;2022-10-26T18:16:19;3.13;;;1.90;;